sensor_id;sensor_type;location;lat;lon;timestamp;pressure;altitude;pressure_sealevel;temperature;humidity
48156;BME280;35568;48.104;11.782;2023-03-18T00:01:33;94975.97;;;5.37;51.84
48156;BME280;35568;48.104;11.782;2023-03-18T00:04:00;94973.75;;;5.37;51.87
48156;BME280;35568;48.104;11.782;2023-03-18T00:06:27;94975.47;;;5.50;51.59
48156;BME280;35568;48.104;11.782;2023-03-18T00:08:54;94974.25;;;5.65;51.16
48156;BME280;35568;48.104;11.782;2023-03-18T00:11:22;94974.60;;;5.56;50.90
48156;BME280;35568;48.104;11.782;2023-03-18T00:13:49;94975.83;;;5.60;50.87
48156;BME280;35568;48.104;11.782;2023-03-18T00:16:16;94980.02;;;5.37;50.85
48156;BME280;35568;48.104;11.782;2023-03-18T00:18:43;94982.63;;;5.40;51.03
48156;BME280;35568;48.104;11.782;2023-03-18T00:21:10;94979.63;;;5.69;51.14
48156;BME280;35568;48.104;11.782;2023-03-18T00:23:37;94986.97;;;5.62;51.15
48156;BME280;35568;48.104;11.782;2023-03-18T00:26:04;94989.32;;;5.31;51.41
48156;BME280;35568;48.104;11.782;2023-03-18T00:28:31;94990.93;;;5.69;51.34
48156;BME280;35568;48.104;11.782;2023-03-18T00:31:02;94989.39;;;5.77;51.39
48156;BME280;35568;48.104;11.782;2023-03-18T00:33:29;94992.45;;;5.78;51.41
48156;BME280;35568;48.104;11.782;2023-03-18T00:35:56;94989.69;;;5.96;51.45
48156;BME280;35568;48.104;11.782;2023-03-18T00:38:23;94995.26;;;5.65;51.17
48156;BME280;35568;48.104;11.782;2023-03-18T00:40:51;94996.90;;;5.81;51.29
48156;BME280;35568;48.104;11.782;2023-03-18T00:43:20;94995.35;;;5.36;51.54
48156;BME280;35568;48.104;11.782;2023-03-18T00:45:49;94993.94;;;5.43;51.43
48156;BME280;35568;48.104;11.782;2023-03-18T00:48:16;94996.46;;;5.91;51.14
48156;BME280;35568;48.104;11.782;2023-03-18T00:50:43;94999.84;;;5.55;51.31
48156;BME280;35568;48.104;11.782;2023-03-18T00:53:11;94999.92;;;5.47;51.32
48156;BME280;35568;48.104;11.782;2023-03-18T00:55:37;94999.65;;;5.71;51.42
48156;BME280;35568;48.104;11.782;2023-03-18T00:58:04;94996.53;;;5.48;51.38
48156;BME280;35568;48.104;11.782;2023-03-18T01:00:31;94994.58;;;5.85;51.26
48156;BME280;35568;48.104;11.782;2023-03-18T01:02:58;94999.24;;;5.73;51.15
48156;BME280;35568;48.104;11.782;2023-03-18T01:05:24;95001.60;;;5.46;51.16
48156;BME280;35568;48.104;11.782;2023-03-18T01:07:51;95003.62;;;5.62;51.24
48156;BME280;35568;48.104;11.782;2023-03-18T01:10:18;95005.35;;;5.51;51.46
48156;BME280;35568;48.104;11.782;2023-03-18T01:12:45;95004.89;;;5.41;51.42
48156;BME280;35568;48.104;11.782;2023-03-18T01:15:14;95003.91;;;5.35;51.50
48156;BME280;35568;48.104;11.782;2023-03-18T01:17:40;95003.52;;;5.32;51.58
48156;BME280;35568;48.104;11.782;2023-03-18T01:20:09;95001.96;;;5.32;51.57
48156;BME280;35568;48.104;11.782;2023-03-18T01:22:36;95000.09;;;5.34;51.54
48156;BME280;35568;48.104;11.782;2023-03-18T01:25:04;95004.10;;;5.32;51.39
48156;BME280;35568;48.104;11.782;2023-03-18T01:27:31;95001.92;;;5.20;51.70
48156;BME280;35568;48.104;11.782;2023-03-18T01:29:58;95000.79;;;5.20;51.82
48156;BME280;35568;48.104;11.782;2023-03-18T01:32:25;94997.89;;;5.31;51.65
48156;BME280;35568;48.104;11.782;2023-03-18T01:34:53;94997.38;;;5.29;51.83
48156;BME280;35568;48.104;11.782;2023-03-18T01:37:20;94996.47;;;5.38;51.59
48156;BME280;35568;48.104;11.782;2023-03-18T01:39:47;94993.48;;;5.29;51.73
48156;BME280;35568;48.104;11.782;2023-03-18T01:42:13;94996.79;;;5.43;51.59
48156;BME280;35568;48.104;11.782;2023-03-18T01:44:40;94997.67;;;5.20;51.35
48156;BME280;35568;48.104;11.782;2023-03-18T01:47:08;94999.63;;;5.26;51.75
48156;BME280;35568;48.104;11.782;2023-03-18T01:49:40;94996.77;;;5.19;51.69
48156;BME280;35568;48.104;11.782;2023-03-18T01:52:12;94999.42;;;5.28;51.93
48156;BME280;35568;48.104;11.782;2023-03-18T01:54:42;95002.73;;;5.42;51.75
48156;BME280;35568;48.104;11.782;2023-03-18T01:57:10;95001.02;;;5.60;51.58
48156;BME280;35568;48.104;11.782;2023-03-18T01:59:40;95002.12;;;5.56;51.52
48156;BME280;35568;48.104;11.782;2023-03-18T02:02:09;95000.11;;;5.42;51.98
48156;BME280;35568;48.104;11.782;2023-03-18T02:04:40;95004.11;;;5.45;51.71
48156;BME280;35568;48.104;11.782;2023-03-18T02:07:13;95005.91;;;5.53;51.59
48156;BME280;35568;48.104;11.782;2023-03-18T02:09:40;95007.62;;;5.45;51.83
48156;BME280;35568;48.104;11.782;2023-03-18T02:12:08;95006.89;;;5.41;51.91
48156;BME280;35568;48.104;11.782;2023-03-18T02:14:36;95009.83;;;5.60;51.68
48156;BME280;35568;48.104;11.782;2023-03-18T02:17:07;95010.88;;;5.50;51.22
48156;BME280;35568;48.104;11.782;2023-03-18T02:19:48;95013.89;;;5.32;51.33
48156;BME280;35568;48.104;11.782;2023-03-18T02:22:23;95015.95;;;5.84;51.26
48156;BME280;35568;48.104;11.782;2023-03-18T02:24:59;95018.08;;;5.42;51.01
48156;BME280;35568;48.104;11.782;2023-03-18T02:27:32;95016.45;;;5.56;51.31
48156;BME280;35568;48.104;11.782;2023-03-18T02:30:05;95019.01;;;5.63;51.02
48156;BME280;35568;48.104;11.782;2023-03-18T02:32:33;95014.66;;;6.05;50.81
48156;BME280;35568;48.104;11.782;2023-03-18T02:35:04;95016.40;;;5.99;50.43
48156;BME280;35568;48.104;11.782;2023-03-18T02:37:31;95018.89;;;6.07;50.12
48156;BME280;35568;48.104;11.782;2023-03-18T02:40:11;95022.85;;;5.88;50.01
48156;BME280;35568;48.104;11.782;2023-03-18T02:42:38;95021.77;;;5.95;49.84
48156;BME280;35568;48.104;11.782;2023-03-18T02:45:11;95023.02;;;6.11;49.89
48156;BME280;35568;48.104;11.782;2023-03-18T02:47:40;95023.18;;;5.84;49.94
48156;BME280;35568;48.104;11.782;2023-03-18T02:50:09;95024.09;;;5.83;49.97
48156;BME280;35568;48.104;11.782;2023-03-18T02:52:36;95024.43;;;5.86;49.84
48156;BME280;35568;48.104;11.782;2023-03-18T02:55:04;95027.13;;;6.02;49.49
48156;BME280;35568;48.104;11.782;2023-03-18T02:57:31;95030.25;;;6.00;49.41
48156;BME280;35568;48.104;11.782;2023-03-18T02:59:58;95032.38;;;6.26;49.28
48156;BME280;35568;48.104;11.782;2023-03-18T03:02:26;95035.39;;;6.04;49.17
48156;BME280;35568;48.104;11.782;2023-03-18T03:04:53;95041.05;;;6.32;48.57
48156;BME280;35568;48.104;11.782;2023-03-18T03:07:19;95041.05;;;6.15;48.27
48156;BME280;35568;48.104;11.782;2023-03-18T03:09:46;95044.76;;;6.51;47.51
48156;BME280;35568;48.104;11.782;2023-03-18T03:12:13;95045.68;;;7.05;47.06
48156;BME280;35568;48.104;11.782;2023-03-18T03:14:40;95048.48;;;6.64;47.17
48156;BME280;35568;48.104;11.782;2023-03-18T03:17:07;95050.86;;;6.74;47.11
48156;BME280;35568;48.104;11.782;2023-03-18T03:19:34;95052.48;;;6.67;47.12
48156;BME280;35568;48.104;11.782;2023-03-18T03:22:01;95057.45;;;6.73;47.47
48156;BME280;35568;48.104;11.782;2023-03-18T03:24:28;95061.91;;;6.42;47.47
48156;BME280;35568;48.104;11.782;2023-03-18T03:26:55;95066.06;;;6.51;47.25
48156;BME280;35568;48.104;11.782;2023-03-18T03:29:22;95067.69;;;6.69;47.38
48156;BME280;35568;48.104;11.782;2023-03-18T03:31:49;95069.40;;;6.41;47.31
48156;BME280;35568;48.104;11.782;2023-03-18T03:34:16;95071.67;;;6.31;47.47
48156;BME280;35568;48.104;11.782;2023-03-18T03:36:42;95073.96;;;6.62;47.48
48156;BME280;35568;48.104;11.782;2023-03-18T03:39:09;95077.02;;;6.78;47.16
48156;BME280;35568;48.104;11.782;2023-03-18T03:41:36;95078.07;;;6.46;47.49
48156;BME280;35568;48.104;11.782;2023-03-18T03:44:03;95081.28;;;6.61;47.31
48156;BME280;35568;48.104;11.782;2023-03-18T03:46:30;95079.15;;;6.46;47.35
48156;BME280;35568;48.104;11.782;2023-03-18T03:48:57;95081.88;;;6.60;47.14
48156;BME280;35568;48.104;11.782;2023-03-18T03:51:24;95082.01;;;6.62;47.11
48156;BME280;35568;48.104;11.782;2023-03-18T03:53:51;95082.35;;;6.47;46.81
48156;BME280;35568;48.104;11.782;2023-03-18T03:56:17;95082.17;;;6.61;46.97
48156;BME280;35568;48.104;11.782;2023-03-18T03:58:44;95082.82;;;6.55;46.86
48156;BME280;35568;48.104;11.782;2023-03-18T04:03:00;95084.38;;;6.73;46.61
48156;BME280;35568;48.104;11.782;2023-03-18T04:05:27;95089.23;;;6.87;46.17
48156;BME280;35568;48.104;11.782;2023-03-18T04:07:54;95090.83;;;6.88;45.72
48156;BME280;35568;48.104;11.782;2023-03-18T04:10:21;95087.23;;;6.81;45.35
48156;BME280;35568;48.104;11.782;2023-03-18T04:12:48;95087.91;;;7.02;45.32
48156;BME280;35568;48.104;11.782;2023-03-18T04:15:22;95091.01;;;6.88;45.08
48156;BME280;35568;48.104;11.782;2023-03-18T04:17:49;95092.94;;;7.28;44.78
48156;BME280;35568;48.104;11.782;2023-03-18T04:20:17;95091.17;;;7.18;44.68
48156;BME280;35568;48.104;11.782;2023-03-18T04:22:45;95092.98;;;6.90;44.76
48156;BME280;35568;48.104;11.782;2023-03-18T04:25:12;95092.24;;;6.87;44.73
48156;BME280;35568;48.104;11.782;2023-03-18T04:27:40;95092.16;;;6.79;44.78
48156;BME280;35568;48.104;11.782;2023-03-18T04:30:09;95091.07;;;6.80;44.84
48156;BME280;35568;48.104;11.782;2023-03-18T04:32:36;95094.42;;;6.62;44.88
48156;BME280;35568;48.104;11.782;2023-03-18T04:35:03;95095.67;;;6.91;45.02
48156;BME280;35568;48.104;11.782;2023-03-18T04:37:30;95097.83;;;7.00;44.84
48156;BME280;35568;48.104;11.782;2023-03-18T04:39:57;95101.14;;;6.99;44.88
48156;BME280;35568;48.104;11.782;2023-03-18T04:42:24;95104.15;;;6.55;44.96
48156;BME280;35568;48.104;11.782;2023-03-18T04:44:51;95105.10;;;6.62;45.23
48156;BME280;35568;48.104;11.782;2023-03-18T04:47:18;95106.36;;;6.61;45.27
48156;BME280;35568;48.104;11.782;2023-03-18T04:49:45;95107.45;;;6.68;45.63
48156;BME280;35568;48.104;11.782;2023-03-18T04:52:12;95109.08;;;6.63;45.42
48156;BME280;35568;48.104;11.782;2023-03-18T04:54:39;95107.88;;;6.59;45.48
48156;BME280;35568;48.104;11.782;2023-03-18T04:57:06;95107.62;;;6.67;45.63
48156;BME280;35568;48.104;11.782;2023-03-18T04:59:33;95107.86;;;6.57;45.81
48156;BME280;35568;48.104;11.782;2023-03-18T05:02:00;95104.75;;;6.43;45.86
48156;BME280;35568;48.104;11.782;2023-03-18T05:04:27;95105.50;;;6.42;46.00
48156;BME280;35568;48.104;11.782;2023-03-18T05:06:54;95103.33;;;6.42;46.04
48156;BME280;35568;48.104;11.782;2023-03-18T05:09:21;95102.70;;;6.13;46.22
48156;BME280;35568;48.104;11.782;2023-03-18T05:11:48;95103.49;;;6.36;46.23
48156;BME280;35568;48.104;11.782;2023-03-18T05:14:15;95105.35;;;6.56;46.02
48156;BME280;35568;48.104;11.782;2023-03-18T05:16:41;95101.37;;;6.63;45.96
48156;BME280;35568;48.104;11.782;2023-03-18T05:19:08;95099.25;;;6.28;46.15
48156;BME280;35568;48.104;11.782;2023-03-18T05:21:35;95100.05;;;6.44;46.05
48156;BME280;35568;48.104;11.782;2023-03-18T05:24:02;95101.90;;;6.55;45.98
48156;BME280;35568;48.104;11.782;2023-03-18T05:26:29;95102.50;;;6.35;46.09
48156;BME280;35568;48.104;11.782;2023-03-18T05:28:56;95104.99;;;6.32;46.17
48156;BME280;35568;48.104;11.782;2023-03-18T05:31:23;95104.68;;;6.39;46.16
48156;BME280;35568;48.104;11.782;2023-03-18T05:33:50;95107.74;;;6.52;45.89
48156;BME280;35568;48.104;11.782;2023-03-18T05:36:17;95108.42;;;6.59;45.91
48156;BME280;35568;48.104;11.782;2023-03-18T05:38:43;95114.30;;;6.18;45.74
48156;BME280;35568;48.104;11.782;2023-03-18T05:41:10;95115.21;;;6.69;45.70
48156;BME280;35568;48.104;11.782;2023-03-18T05:43:37;95114.13;;;6.74;45.67
48156;BME280;35568;48.104;11.782;2023-03-18T05:46:04;95113.67;;;6.79;45.63
48156;BME280;35568;48.104;11.782;2023-03-18T05:48:34;95115.25;;;6.48;45.45
48156;BME280;35568;48.104;11.782;2023-03-18T05:51:02;95120.36;;;6.58;45.33
48156;BME280;35568;48.104;11.782;2023-03-18T05:53:29;95118.45;;;7.12;45.15
48156;BME280;35568;48.104;11.782;2023-03-18T05:55:55;95115.18;;;6.73;45.38
48156;BME280;35568;48.104;11.782;2023-03-18T05:58:22;95114.43;;;6.81;45.27
48156;BME280;35568;48.104;11.782;2023-03-18T06:00:49;95115.48;;;6.92;45.15
48156;BME280;35568;48.104;11.782;2023-03-18T06:03:16;95118.49;;;6.73;45.06
48156;BME280;35568;48.104;11.782;2023-03-18T06:05:43;95119.15;;;6.87;44.98
48156;BME280;35568;48.104;11.782;2023-03-18T06:08:10;95125.22;;;7.17;44.88
48156;BME280;35568;48.104;11.782;2023-03-18T06:10:37;95125.93;;;6.87;44.98
48156;BME280;35568;48.104;11.782;2023-03-18T06:13:05;95125.24;;;7.00;44.88
48156;BME280;35568;48.104;11.782;2023-03-18T06:15:32;95122.11;;;7.07;44.84
48156;BME280;35568;48.104;11.782;2023-03-18T06:17:58;95121.08;;;7.28;44.63
48156;BME280;35568;48.104;11.782;2023-03-18T06:20:25;95123.27;;;7.43;44.42
48156;BME280;35568;48.104;11.782;2023-03-18T06:22:52;95125.90;;;7.43;44.49
48156;BME280;35568;48.104;11.782;2023-03-18T06:25:21;95129.14;;;7.52;44.30
48156;BME280;35568;48.104;11.782;2023-03-18T06:27:49;95130.28;;;7.39;44.30
48156;BME280;35568;48.104;11.782;2023-03-18T06:30:17;95131.01;;;7.68;44.02
48156;BME280;35568;48.104;11.782;2023-03-18T06:32:44;95131.76;;;7.84;43.88
48156;BME280;35568;48.104;11.782;2023-03-18T06:35:12;95137.70;;;7.70;44.13
48156;BME280;35568;48.104;11.782;2023-03-18T06:37:39;95135.27;;;7.48;44.04
48156;BME280;35568;48.104;11.782;2023-03-18T06:40:08;95134.68;;;8.19;43.50
48156;BME280;35568;48.104;11.782;2023-03-18T06:42:35;95136.06;;;8.59;43.39
48156;BME280;35568;48.104;11.782;2023-03-18T06:45:03;95136.72;;;8.47;43.19
48156;BME280;35568;48.104;11.782;2023-03-18T06:47:30;95140.79;;;8.22;43.15
48156;BME280;35568;48.104;11.782;2023-03-18T06:49:57;95141.38;;;8.54;43.18
48156;BME280;35568;48.104;11.782;2023-03-18T06:52:24;95139.46;;;8.85;42.89
48156;BME280;35568;48.104;11.782;2023-03-18T06:54:51;95142.22;;;8.94;42.77
48156;BME280;35568;48.104;11.782;2023-03-18T06:57:18;95141.57;;;9.23;42.43
48156;BME280;35568;48.104;11.782;2023-03-18T06:59:45;95142.40;;;9.40;42.02
48156;BME280;35568;48.104;11.782;2023-03-18T07:02:14;95142.31;;;9.16;41.98
48156;BME280;35568;48.104;11.782;2023-03-18T07:04:41;95136.88;;;9.06;41.87
48156;BME280;35568;48.104;11.782;2023-03-18T07:07:07;95136.69;;;9.71;41.72
48156;BME280;35568;48.104;11.782;2023-03-18T07:09:34;95136.87;;;9.90;41.73
48156;BME280;35568;48.104;11.782;2023-03-18T07:12:01;95138.10;;;9.74;41.27
48156;BME280;35568;48.104;11.782;2023-03-18T07:14:27;95138.31;;;9.93;41.01
48156;BME280;35568;48.104;11.782;2023-03-18T07:16:55;95137.61;;;9.93;40.87
48156;BME280;35568;48.104;11.782;2023-03-18T07:19:21;95139.54;;;9.84;40.64
48156;BME280;35568;48.104;11.782;2023-03-18T07:21:48;95139.44;;;9.92;40.74
48156;BME280;35568;48.104;11.782;2023-03-18T07:24:15;95139.75;;;10.19;40.59
48156;BME280;35568;48.104;11.782;2023-03-18T07:26:42;95140.68;;;10.44;40.21
48156;BME280;35568;48.104;11.782;2023-03-18T07:29:09;95140.16;;;10.25;39.58
48156;BME280;35568;48.104;11.782;2023-03-18T07:31:36;95142.76;;;10.42;39.24
48156;BME280;35568;48.104;11.782;2023-03-18T07:34:03;95145.30;;;10.88;38.83
48156;BME280;35568;48.104;11.782;2023-03-18T07:36:29;95146.22;;;10.68;38.37
48156;BME280;35568;48.104;11.782;2023-03-18T07:38:56;95145.20;;;10.88;38.46
48156;BME280;35568;48.104;11.782;2023-03-18T07:41:23;95142.29;;;11.22;38.25
48156;BME280;35568;48.104;11.782;2023-03-18T07:43:50;95144.61;;;11.30;38.15
48156;BME280;35568;48.104;11.782;2023-03-18T07:46:17;95145.90;;;11.51;37.68
48156;BME280;35568;48.104;11.782;2023-03-18T07:48:43;95143.68;;;11.92;37.50
48156;BME280;35568;48.104;11.782;2023-03-18T07:51:10;95140.70;;;12.12;37.17
48156;BME280;35568;48.104;11.782;2023-03-18T07:53:37;95143.16;;;11.94;37.33
48156;BME280;35568;48.104;11.782;2023-03-18T07:56:05;95145.72;;;12.55;37.07
48156;BME280;35568;48.104;11.782;2023-03-18T07:58:32;95146.50;;;12.61;35.85
48156;BME280;35568;48.104;11.782;2023-03-18T08:00:59;95145.63;;;12.78;35.85
48156;BME280;35568;48.104;11.782;2023-03-18T08:03:25;95144.16;;;12.95;35.71
48156;BME280;35568;48.104;11.782;2023-03-18T08:05:52;95144.95;;;13.27;35.48
48156;BME280;35568;48.104;11.782;2023-03-18T08:08:20;95150.12;;;13.10;35.27
48156;BME280;35568;48.104;11.782;2023-03-18T08:10:47;95153.60;;;13.19;34.94
48156;BME280;35568;48.104;11.782;2023-03-18T08:13:13;95159.86;;;13.75;34.79
48156;BME280;35568;48.104;11.782;2023-03-18T08:15:40;95160.78;;;13.97;34.68
48156;BME280;35568;48.104;11.782;2023-03-18T08:18:07;95158.94;;;14.16;33.73
48156;BME280;35568;48.104;11.782;2023-03-18T08:20:34;95159.22;;;14.38;33.61
48156;BME280;35568;48.104;11.782;2023-03-18T08:23:01;95162.31;;;14.24;33.19
48156;BME280;35568;48.104;11.782;2023-03-18T08:25:28;95163.70;;;14.12;32.97
48156;BME280;35568;48.104;11.782;2023-03-18T08:27:54;95165.84;;;14.67;33.14
48156;BME280;35568;48.104;11.782;2023-03-18T08:30:21;95166.93;;;14.97;32.37
48156;BME280;35568;48.104;11.782;2023-03-18T08:32:48;95165.28;;;14.79;31.94
48156;BME280;35568;48.104;11.782;2023-03-18T08:35:15;95165.38;;;14.77;31.84
48156;BME280;35568;48.104;11.782;2023-03-18T08:37:42;95164.75;;;14.80;31.94
48156;BME280;35568;48.104;11.782;2023-03-18T08:40:10;95165.65;;;14.93;32.36
48156;BME280;35568;48.104;11.782;2023-03-18T08:42:37;95163.65;;;15.31;31.46
48156;BME280;35568;48.104;11.782;2023-03-18T08:45:05;95167.64;;;15.06;31.00
48156;BME280;35568;48.104;11.782;2023-03-18T08:47:31;95163.20;;;15.55;30.98
48156;BME280;35568;48.104;11.782;2023-03-18T08:49:58;95158.92;;;15.58;30.97
48156;BME280;35568;48.104;11.782;2023-03-18T08:52:25;95157.42;;;15.55;30.03
48156;BME280;35568;48.104;11.782;2023-03-18T08:54:52;95152.76;;;16.24;29.39
48156;BME280;35568;48.104;11.782;2023-03-18T08:57:19;95155.49;;;16.25;29.33
48156;BME280;35568;48.104;11.782;2023-03-18T08:59:45;95152.03;;;16.78;28.01
48156;BME280;35568;48.104;11.782;2023-03-18T09:02:14;95149.81;;;17.04;28.41
48156;BME280;35568;48.104;11.782;2023-03-18T09:04:41;95146.99;;;17.26;27.87
48156;BME280;35568;48.104;11.782;2023-03-18T09:07:08;95148.92;;;17.48;26.83
48156;BME280;35568;48.104;11.782;2023-03-18T09:09:35;95149.51;;;17.60;26.93
48156;BME280;35568;48.104;11.782;2023-03-18T09:12:03;95146.30;;;17.96;27.60
48156;BME280;35568;48.104;11.782;2023-03-18T09:14:30;95144.01;;;17.95;26.70
48156;BME280;35568;48.104;11.782;2023-03-18T09:16:58;95148.82;;;18.27;25.70
48156;BME280;35568;48.104;11.782;2023-03-18T09:19:26;95149.13;;;18.47;25.30
48156;BME280;35568;48.104;11.782;2023-03-18T09:21:53;95148.21;;;18.85;25.17
48156;BME280;35568;48.104;11.782;2023-03-18T09:24:21;95151.08;;;18.83;25.06
48156;BME280;35568;48.104;11.782;2023-03-18T09:26:48;95151.78;;;19.06;24.75
48156;BME280;35568;48.104;11.782;2023-03-18T09:29:15;95153.03;;;19.17;24.88
48156;BME280;35568;48.104;11.782;2023-03-18T09:31:42;95149.88;;;19.06;24.98
48156;BME280;35568;48.104;11.782;2023-03-18T09:34:08;95149.48;;;19.07;24.62
48156;BME280;35568;48.104;11.782;2023-03-18T09:36:35;95144.60;;;19.64;24.92
48156;BME280;35568;48.104;11.782;2023-03-18T09:39:02;95141.41;;;19.34;24.34
48156;BME280;35568;48.104;11.782;2023-03-18T09:41:42;95141.16;;;19.64;24.77
48156;BME280;35568;48.104;11.782;2023-03-18T09:44:18;95140.31;;;20.27;23.97
48156;BME280;35568;48.104;11.782;2023-03-18T09:47:01;95139.13;;;20.16;23.87
48156;BME280;35568;48.104;11.782;2023-03-18T09:49:39;95142.30;;;19.68;24.10
48156;BME280;35568;48.104;11.782;2023-03-18T09:52:16;95143.52;;;19.77;23.99
48156;BME280;35568;48.104;11.782;2023-03-18T09:54:50;95140.87;;;20.37;24.05
48156;BME280;35568;48.104;11.782;2023-03-18T09:57:22;95138.55;;;20.87;23.87
48156;BME280;35568;48.104;11.782;2023-03-18T09:59:52;95134.39;;;21.18;22.82
48156;BME280;35568;48.104;11.782;2023-03-18T10:02:24;95133.75;;;21.14;22.89
48156;BME280;35568;48.104;11.782;2023-03-18T10:04:55;95135.23;;;21.49;22.32
48156;BME280;35568;48.104;11.782;2023-03-18T10:07:28;95134.54;;;21.00;23.32
48156;BME280;35568;48.104;11.782;2023-03-18T10:10:00;95132.73;;;20.93;23.20
48156;BME280;35568;48.104;11.782;2023-03-18T10:12:31;95135.07;;;20.96;22.58
48156;BME280;35568;48.104;11.782;2023-03-18T10:15:09;95137.67;;;21.82;22.42
48156;BME280;35568;48.104;11.782;2023-03-18T10:17:40;95140.40;;;21.97;22.34
48156;BME280;35568;48.104;11.782;2023-03-18T10:20:17;95136.25;;;22.49;22.20
48156;BME280;35568;48.104;11.782;2023-03-18T10:23:01;95138.21;;;23.47;20.60
48156;BME280;35568;48.104;11.782;2023-03-18T10:25:36;95135.70;;;23.80;20.17
48156;BME280;35568;48.104;11.782;2023-03-18T10:28:23;95135.20;;;23.12;20.12
48156;BME280;35568;48.104;11.782;2023-03-18T10:31:00;95136.34;;;23.60;20.74
48156;BME280;35568;48.104;11.782;2023-03-18T10:33:39;95141.74;;;24.63;20.73
48156;BME280;35568;48.104;11.782;2023-03-18T10:36:11;95142.88;;;24.75;18.55
48156;BME280;35568;48.104;11.782;2023-03-18T10:38:45;95142.92;;;25.06;18.88
48156;BME280;35568;48.104;11.782;2023-03-18T10:41:17;95141.70;;;24.81;18.49
48156;BME280;35568;48.104;11.782;2023-03-18T10:43:46;95139.61;;;25.18;18.30
48156;BME280;35568;48.104;11.782;2023-03-18T10:46:18;95138.35;;;25.18;18.54
48156;BME280;35568;48.104;11.782;2023-03-18T10:48:47;95132.69;;;25.16;18.37
48156;BME280;35568;48.104;11.782;2023-03-18T10:51:20;95126.85;;;24.96;17.04
48156;BME280;35568;48.104;11.782;2023-03-18T10:53:53;95124.44;;;24.76;17.55
48156;BME280;35568;48.104;11.782;2023-03-18T10:56:21;95122.00;;;24.61;17.46
48156;BME280;35568;48.104;11.782;2023-03-18T10:58:49;95121.88;;;25.09;18.23
48156;BME280;35568;48.104;11.782;2023-03-18T11:01:18;95120.73;;;25.22;18.70
48156;BME280;35568;48.104;11.782;2023-03-18T11:03:49;95113.43;;;25.09;18.15
48156;BME280;35568;48.104;11.782;2023-03-18T11:06:21;95104.93;;;25.40;18.46
48156;BME280;35568;48.104;11.782;2023-03-18T11:08:48;95101.68;;;25.01;18.56
48156;BME280;35568;48.104;11.782;2023-03-18T11:11:21;95106.03;;;24.81;18.57
48156;BME280;35568;48.104;11.782;2023-03-18T11:13:50;95097.53;;;25.22;18.16
48156;BME280;35568;48.104;11.782;2023-03-18T11:16:36;95093.35;;;25.51;18.12
48156;BME280;35568;48.104;11.782;2023-03-18T11:19:24;95090.58;;;25.64;17.31
48156;BME280;35568;48.104;11.782;2023-03-18T11:22:00;95087.86;;;25.24;17.90
48156;BME280;35568;48.104;11.782;2023-03-18T11:24:28;95085.73;;;25.56;18.36
48156;BME280;35568;48.104;11.782;2023-03-18T11:26:56;95085.86;;;25.66;17.88
48156;BME280;35568;48.104;11.782;2023-03-18T11:29:25;95079.29;;;25.89;17.71
48156;BME280;35568;48.104;11.782;2023-03-18T11:31:55;95077.49;;;26.01;17.17
48156;BME280;35568;48.104;11.782;2023-03-18T11:34:23;95079.58;;;26.30;17.41
48156;BME280;35568;48.104;11.782;2023-03-18T11:36:53;95076.66;;;26.52;17.46
48156;BME280;35568;48.104;11.782;2023-03-18T11:39:22;95073.99;;;27.17;16.39
48156;BME280;35568;48.104;11.782;2023-03-18T11:41:51;95066.52;;;26.64;16.52
48156;BME280;35568;48.104;11.782;2023-03-18T11:44:23;95064.63;;;26.51;17.09
48156;BME280;35568;48.104;11.782;2023-03-18T11:46:54;95061.62;;;26.92;17.20
48156;BME280;35568;48.104;11.782;2023-03-18T11:49:26;95054.83;;;26.95;16.71
48156;BME280;35568;48.104;11.782;2023-03-18T11:51:59;95048.49;;;27.08;16.11
48156;BME280;35568;48.104;11.782;2023-03-18T11:54:46;95047.81;;;27.16;16.41
48156;BME280;35568;48.104;11.782;2023-03-18T11:57:17;95046.11;;;27.50;16.11
48156;BME280;35568;48.104;11.782;2023-03-18T11:59:57;95039.78;;;28.07;16.09
48156;BME280;35568;48.104;11.782;2023-03-18T12:02:41;95033.31;;;28.06;15.41
48156;BME280;35568;48.104;11.782;2023-03-18T12:05:27;95030.05;;;28.23;15.33
48156;BME280;35568;48.104;11.782;2023-03-18T12:08:02;95025.28;;;27.91;16.07
48156;BME280;35568;48.104;11.782;2023-03-18T12:10:35;95020.57;;;27.55;15.83
48156;BME280;35568;48.104;11.782;2023-03-18T12:13:12;95013.76;;;27.29;16.09
48156;BME280;35568;48.104;11.782;2023-03-18T12:15:48;95010.52;;;26.76;16.94
48156;BME280;35568;48.104;11.782;2023-03-18T12:18:26;95008.01;;;27.44;16.56
48156;BME280;35568;48.104;11.782;2023-03-18T12:21:03;95011.29;;;27.49;16.83
48156;BME280;35568;48.104;11.782;2023-03-18T12:23:49;95006.12;;;27.96;16.46
48156;BME280;35568;48.104;11.782;2023-03-18T12:26:23;95002.00;;;28.29;16.29
48156;BME280;35568;48.104;11.782;2023-03-18T12:29:12;94999.93;;;27.67;16.27
48156;BME280;35568;48.104;11.782;2023-03-18T12:31:51;95001.72;;;27.63;16.60
48156;BME280;35568;48.104;11.782;2023-03-18T12:34:34;95002.80;;;28.32;16.22
48156;BME280;35568;48.104;11.782;2023-03-18T12:37:17;95005.51;;;28.36;16.17
48156;BME280;35568;48.104;11.782;2023-03-18T12:39:57;95007.09;;;28.56;16.22
48156;BME280;35568;48.104;11.782;2023-03-18T12:42:37;95007.57;;;28.67;15.52
48156;BME280;35568;48.104;11.782;2023-03-18T12:45:10;95005.95;;;28.43;16.50
48156;BME280;35568;48.104;11.782;2023-03-18T12:47:43;95000.96;;;28.29;15.65
48156;BME280;35568;48.104;11.782;2023-03-18T12:50:15;94995.68;;;28.50;16.07
48156;BME280;35568;48.104;11.782;2023-03-18T12:52:45;95000.07;;;27.73;16.37
48156;BME280;35568;48.104;11.782;2023-03-18T12:55:15;95000.26;;;28.07;16.53
48156;BME280;35568;48.104;11.782;2023-03-18T12:57:47;94996.57;;;27.23;16.47
48156;BME280;35568;48.104;11.782;2023-03-18T13:00:20;94999.66;;;27.05;16.86
48156;BME280;35568;48.104;11.782;2023-03-18T13:02:55;94998.38;;;27.72;16.83
48156;BME280;35568;48.104;11.782;2023-03-18T13:05:29;94997.31;;;27.92;16.80
48156;BME280;35568;48.104;11.782;2023-03-18T13:08:42;94996.33;;;28.02;16.66